Time;durP1;ratioP1;P1;durP2;ratioP2;P2;SDS_P1;SDS_P2;PMS_P1;PMS_P2;Temp;Humidity;BMP_temperature;BMP_pressure;BME280_temperature;BME280_humidity;BME280_pressure;Samples;Min_cycle;Max_cycle;Signal;HPM_P1;HPM_P2
2023/06/25 00:01:06;;;;;;;9.48;6.90;;;19.90;99.90;;;;;;12419139;28;20128;-38
2023/06/25 00:07:07;;;;;;;7.15;6.25;;;19.80;99.90;;;;;;12410033;28;20050;-40
2023/06/25 00:13:09;;;;;;;11.55;6.80;;;19.80;99.90;;;;;;12390239;28;20180;-39
2023/06/25 00:19:11;;;;;;;7.35;5.72;;;19.70;99.90;;;;;;12427959;28;20050;-38
2023/06/25 00:25:14;;;;;;;9.40;6.63;;;19.70;99.90;;;;;;12396153;28;20038;-38
2023/06/25 00:31:16;;;;;;;11.07;6.53;;;19.60;99.90;;;;;;12418327;28;20678;-39
2023/06/25 00:37:18;;;;;;;8.57;6.85;;;19.40;99.90;;;;;;12408879;28;20062;-37
2023/06/25 00:43:21;;;;;;;8.07;6.35;;;19.40;99.90;;;;;;12419373;28;20050;-38
2023/06/25 00:49:23;;;;;;;7.78;6.43;;;19.40;99.90;;;;;;12430808;28;20188;-38
2023/06/25 00:55:25;;;;;;;10.48;6.35;;;19.30;99.90;;;;;;12415899;28;20541;-39
2023/06/25 01:01:44;;;;;;;7.95;6.03;;;19.40;99.90;;;;;;12417768;28;20054;-38
2023/06/25 01:07:47;;;;;;;7.72;6.00;;;19.40;99.90;;;;;;12396190;28;20559;-38
2023/06/25 01:13:49;;;;;;;11.23;6.47;;;19.40;99.90;;;;;;12409754;28;20046;-39
2023/06/25 01:19:51;;;;;;;9.23;6.93;;;19.30;99.90;;;;;;12405200;28;20132;-39
2023/06/25 01:25:53;;;;;;;7.95;6.40;;;19.10;99.90;;;;;;12418576;28;21361;-39
2023/06/25 01:31:57;;;;;;;7.97;5.78;;;19.10;99.90;;;;;;12413863;28;20081;-38
2023/06/25 01:37:59;;;;;;;9.05;5.88;;;19.10;99.90;;;;;;12414445;28;20483;-39
2023/06/25 01:44:01;;;;;;;8.02;6.15;;;19.00;99.90;;;;;;12401174;28;20185;-40
2023/06/25 01:50:04;;;;;;;7.88;6.05;;;19.00;99.90;;;;;;12427166;28;20046;-38
2023/06/25 01:56:06;;;;;;;8.70;6.43;;;18.90;99.90;;;;;;12413068;28;20416;-38
2023/06/25 02:02:08;;;;;;;9.38;5.93;;;18.90;99.90;;;;;;12420124;28;20076;-39
2023/06/25 02:08:09;;;;;;;7.07;5.35;;;18.90;99.90;;;;;;12422369;28;20050;-38
2023/06/25 02:14:12;;;;;;;9.63;6.03;;;18.90;99.90;;;;;;12414158;28;20057;-38
2023/06/25 02:20:14;;;;;;;7.38;6.32;;;18.80;99.90;;;;;;12411990;28;20487;-38
2023/06/25 02:26:16;;;;;;;9.43;6.25;;;18.70;99.90;;;;;;12410200;28;20041;-38
2023/06/25 02:32:18;;;;;;;7.13;5.03;;;18.70;99.90;;;;;;12412005;28;20418;-38
2023/06/25 02:38:19;;;;;;;10.27;6.03;;;18.60;99.90;;;;;;12427542;28;20061;-38
2023/06/25 02:44:21;;;;;;;10.85;6.22;;;18.50;99.90;;;;;;12407812;28;20046;-38
2023/06/25 02:50:24;;;;;;;7.82;6.10;;;18.40;99.90;;;;;;12428822;28;20050;-38
2023/06/25 02:56:25;;;;;;;9.05;5.40;;;18.40;99.90;;;;;;12405217;28;20050;-38
2023/06/25 03:02:27;;;;;;;7.68;5.45;;;18.30;99.90;;;;;;12410897;28;20124;-39
2023/06/25 03:08:29;;;;;;;7.57;6.03;;;18.30;99.90;;;;;;12398539;28;20050;-38
2023/06/25 03:14:32;;;;;;;7.93;5.60;;;18.30;99.90;;;;;;12398143;28;20046;-38
2023/06/25 03:20:36;;;;;;;7.00;6.25;;;18.20;99.90;;;;;;12409687;28;20052;-38
2023/06/25 03:26:38;;;;;;;7.25;5.90;;;18.30;99.90;;;;;;12408687;28;20081;-38
2023/06/25 03:32:42;;;;;;;7.63;6.35;;;18.30;99.90;;;;;;12413046;28;20053;-38
2023/06/25 03:38:44;;;;;;;;;;;18.30;99.90;;;;;;12399557;28;20217;-38
2023/06/25 03:44:48;;;;;;;9.40;7.03;;;18.30;99.90;;;;;;12403770;28;19921;-38
2023/06/25 03:50:50;;;;;;;9.13;7.30;;;18.10;99.90;;;;;;12393918;28;20046;-38
2023/06/25 03:56:52;;;;;;;8.85;6.85;;;18.10;99.90;;;;;;12397707;28;20062;-38
2023/06/25 04:02:54;;;;;;;8.13;6.75;;;18.20;99.90;;;;;;12417635;28;20415;-39
2023/06/25 04:08:56;;;;;;;8.32;6.43;;;18.40;99.90;;;;;;12407227;28;20081;-38
2023/06/25 04:14:58;;;;;;;8.60;5.80;;;18.50;99.90;;;;;;12415933;28;20137;-38
2023/06/25 04:21:00;;;;;;;8.93;6.78;;;18.70;99.90;;;;;;12417692;28;20046;-38
2023/06/25 04:27:02;;;;;;;10.13;7.07;;;19.20;99.90;;;;;;12412564;28;20426;-37
2023/06/25 04:33:04;;;;;;;12.43;7.28;;;19.30;99.90;;;;;;12428450;28;20057;-38
2023/06/25 04:39:06;;;;;;;11.63;7.00;;;19.40;99.90;;;;;;12408193;28;20054;-38
2023/06/25 04:45:08;;;;;;;11.90;6.97;;;19.70;99.90;;;;;;12419323;28;20050;-38
2023/06/25 04:51:13;;;;;;;10.80;6.50;;;19.70;99.90;;;;;;12401719;28;20055;-37
2023/06/25 04:57:15;;;;;;;12.70;6.73;;;19.70;99.90;;;;;;12418295;28;20519;-38
2023/06/25 05:03:17;;;;;;;8.20;6.68;;;19.50;99.90;;;;;;12412801;28;20711;-38
2023/06/25 05:09:19;;;;;;;8.93;6.78;;;19.50;99.90;;;;;;12412065;28;20050;-38
2023/06/25 05:15:21;;;;;;;7.65;5.97;;;19.50;99.90;;;;;;12396395;28;20053;-38
2023/06/25 05:21:23;;;;;;;10.18;7.28;;;19.40;99.90;;;;;;12408178;28;20068;-38
2023/06/25 05:27:25;;;;;;;8.48;7.40;;;19.20;99.90;;;;;;12391936;28;20418;-39
2023/06/25 05:33:27;;;;;;;10.18;7.45;;;19.20;99.90;;;;;;12308320;28;20086;-39
2023/06/25 05:39:29;;;;;;;9.80;6.85;;;19.20;99.90;;;;;;12325277;28;20464;-38
2023/06/25 05:45:31;;;;;;;12.98;6.80;;;19.20;99.90;;;;;;12313771;28;20043;-38
2023/06/25 05:51:33;;;;;;;11.18;6.53;;;19.40;99.90;;;;;;12308161;28;20051;-38
2023/06/25 05:57:35;;;;;;;8.60;6.65;;;19.60;99.90;;;;;;12302781;28;20496;-39
2023/06/25 06:03:38;;;;;;;8.93;6.70;;;19.80;99.90;;;;;;12291727;28;20079;-38
2023/06/25 06:09:40;;;;;;;10.73;6.53;;;19.80;99.90;;;;;;12314102;28;20051;-38
2023/06/25 06:15:42;;;;;;;8.77;6.90;;;19.80;99.90;;;;;;12309174;28;20051;-39
2023/06/25 06:21:45;;;;;;;8.70;5.93;;;19.80;99.90;;;;;;12308587;28;20047;-37
2023/06/25 06:27:47;;;;;;;12.02;6.40;;;19.90;99.90;;;;;;12318947;28;20069;-39
2023/06/25 06:33:50;;;;;;;7.38;5.15;;;20.20;99.90;;;;;;12408696;28;20133;-38
2023/06/25 06:39:52;;;;;;;6.72;4.22;;;21.00;99.90;;;;;;12415038;28;20458;-38
2023/06/25 06:45:53;;;;;;;8.98;6.00;;;21.30;99.90;;;;;;12419122;28;20146;-39
2023/06/25 06:51:56;;;;;;;5.47;4.50;;;21.40;99.90;;;;;;12404158;28;20069;-39
2023/06/25 06:57:58;;;;;;;6.32;4.75;;;21.60;99.90;;;;;;12406302;28;20074;-39
2023/06/25 07:03:59;;;;;;;7.00;4.60;;;21.70;99.90;;;;;;12413470;28;20646;-39
2023/06/25 07:10:01;;;;;;;5.57;3.90;;;21.90;99.90;;;;;;12401546;28;20078;-39
2023/06/25 07:16:04;;;;;;;8.65;4.97;;;22.20;99.90;;;;;;12389559;28;20137;-39
2023/06/25 07:22:06;;;;;;;7.53;4.00;;;22.50;99.90;;;;;;12390097;28;20076;-39
2023/06/25 07:28:11;;;;;;;7.53;4.05;;;22.70;99.90;;;;;;12419570;28;20065;-39
2023/06/25 07:34:13;;;;;;;8.65;4.00;;;22.60;99.90;;;;;;12402852;28;20137;-40
2023/06/25 07:40:15;;;;;;;7.03;4.32;;;23.10;99.90;;;;;;12410656;28;20458;-40
2023/06/25 07:46:17;;;;;;;6.50;4.25;;;23.20;99.90;;;;;;12415072;28;20049;-39
2023/06/25 07:52:19;;;;;;;7.50;4.75;;;23.40;99.90;;;;;;12437038;28;20042;-39
2023/06/25 07:58:21;;;;;;;8.45;4.15;;;23.60;99.90;;;;;;12412992;28;20426;-39
2023/06/25 08:04:23;;;;;;;10.70;3.95;;;23.70;99.90;;;;;;12391553;28;20082;-39
2023/06/25 08:10:25;;;;;;;10.38;3.90;;;23.90;99.90;;;;;;12418430;28;20064;-40
2023/06/25 08:16:30;;;;;;;7.10;4.30;;;24.00;99.90;;;;;;12411051;28;20049;-40
2023/06/25 08:22:32;;;;;;;5.07;3.97;;;24.10;99.90;;;;;;12420649;28;20045;-39
2023/06/25 08:28:34;;;;;;;5.38;3.78;;;24.30;99.90;;;;;;12397183;28;20050;-40
2023/06/25 08:34:37;;;;;;;6.03;4.20;;;24.50;99.90;;;;;;12412990;28;20405;-40
2023/06/25 08:40:40;;;;;;;5.90;4.00;;;24.70;99.90;;;;;;12410459;28;20082;-39
2023/06/25 08:46:49;;;;;;;6.57;4.78;;;24.80;99.90;;;;;;12423294;28;20057;-41
2023/06/25 08:52:52;;;;;;;5.32;3.95;;;24.80;99.90;;;;;;12419874;28;20522;-39
2023/06/25 08:58:54;;;;;;;7.15;4.25;;;24.90;99.90;;;;;;12410209;28;20116;-40
2023/06/25 09:05:07;;;;;;;5.85;3.90;;;25.30;99.90;;;;;;12430925;28;20413;-40
2023/06/25 09:11:10;;;;;;;8.15;4.63;;;25.50;99.90;;;;;;12410878;28;20050;-40
2023/06/25 09:17:13;;;;;;;5.25;3.85;;;25.80;99.90;;;;;;12415376;28;20438;-40
2023/06/25 09:23:23;;;;;;;5.47;3.77;;;26.20;99.90;;;;;;12410635;28;20418;-40
2023/06/25 09:29:25;;;;;;;7.13;4.35;;;26.40;99.90;;;;;;12399548;28;20051;-40
2023/06/25 09:35:29;;;;;;;4.90;3.73;;;26.70;99.90;;;;;;12408313;28;20525;-40
2023/06/25 09:41:34;;;;;;;5.43;4.10;;;27.20;99.90;;;;;;12394577;28;20595;-40
2023/06/25 09:47:40;;;;;;;6.43;4.55;;;27.40;99.90;;;;;;12408299;28;20050;-41
2023/06/25 09:53:43;;;;;;;7.65;4.22;;;27.70;99.90;;;;;;12419583;28;20091;-40
2023/06/25 09:59:46;;;;;;;6.30;4.00;;;28.10;99.90;;;;;;12401003;28;20065;-40
2023/06/25 10:05:51;;;;;;;6.40;4.45;;;27.70;99.90;;;;;;12420824;28;20034;-40
2023/06/25 10:11:56;;;;;;;8.10;4.43;;;28.00;99.90;;;;;;12399985;28;20111;-41
2023/06/25 10:18:00;;;;;;;6.95;4.13;;;28.10;99.90;;;;;;12418436;28;20057;-40
2023/06/25 10:24:03;;;;;;;5.75;4.35;;;28.30;99.90;;;;;;12405775;28;20049;-40
2023/06/25 10:30:14;;;;;;;5.95;4.53;;;28.50;99.90;;;;;;12418531;28;20064;-40
2023/06/25 10:36:24;;;;;;;4.65;3.80;;;28.80;99.90;;;;;;12390852;28;20046;-40
2023/06/25 10:42:30;;;;;;;8.10;4.70;;;29.10;99.90;;;;;;12417111;28;20061;-40
2023/06/25 10:48:32;;;;;;;8.38;4.32;;;29.30;99.90;;;;;;12404659;28;20046;-40
2023/06/25 10:54:34;;;;;;;7.22;4.03;;;29.10;99.90;;;;;;12422489;28;20038;-40
2023/06/25 11:00:36;;;;;;;6.32;4.07;;;29.30;99.90;;;;;;12403548;28;20089;-42
2023/06/25 11:06:38;;;;;;;5.65;4.50;;;29.20;99.90;;;;;;12399235;28;20069;-40
2023/06/25 11:12:40;;;;;;;11.38;3.80;;;29.20;99.90;;;;;;12397993;28;20042;-39
2023/06/25 11:18:45;;;;;;;7.60;4.43;;;29.30;99.90;;;;;;12418940;28;20057;-39
2023/06/25 11:24:47;;;;;;;5.43;3.63;;;29.10;99.90;;;;;;12387546;28;20038;-40
2023/06/25 11:30:57;;;;;;;5.30;4.28;;;29.30;99.90;;;;;;12414765;28;20054;-41
2023/06/25 11:37:12;;;;;;;30.70;5.35;;;29.40;99.90;;;;;;12411903;28;20046;-40
2023/06/25 11:43:21;;;;;;;6.20;4.03;;;29.50;99.90;;;;;;12410605;28;20092;-40
2023/06/25 11:49:25;;;;;;;8.15;4.32;;;29.30;99.90;;;;;;12404058;28;20042;-39
2023/06/25 11:55:27;;;;;;;7.43;3.72;;;29.00;99.90;;;;;;12413493;28;20413;-39
2023/06/25 12:01:29;;;;;;;6.90;3.88;;;29.60;99.90;;;;;;12421716;28;20049;-39
2023/06/25 12:07:32;;;;;;;4.38;3.08;;;29.20;99.90;;;;;;12408960;28;20195;-40
2023/06/25 12:13:34;;;;;;;6.40;3.70;;;28.90;99.90;;;;;;12395962;28;20074;-40
2023/06/25 12:19:36;;;;;;;4.60;3.65;;;29.20;99.90;;;;;;12406007;28;20061;-40
2023/06/25 12:25:39;;;;;;;5.95;3.85;;;29.70;99.90;;;;;;12405557;28;20417;-40
2023/06/25 12:31:41;;;;;;;4.88;3.60;;;30.00;99.90;;;;;;12413417;28;20050;-40
2023/06/25 12:37:43;;;;;;;6.57;3.97;;;30.10;99.90;;;;;;12419828;28;20133;-41
2023/06/25 12:43:45;;;;;;;8.88;3.42;;;29.90;99.90;;;;;;12419524;28;20045;-40
2023/06/25 12:49:46;;;;;;;6.40;3.50;;;30.00;99.90;;;;;;12390227;28;20053;-40
2023/06/25 12:55:49;;;;;;;6.68;3.85;;;30.00;99.90;;;;;;12430520;28;20050;-40
2023/06/25 13:01:55;;;;;;;6.95;3.97;;;29.80;99.90;;;;;;12400476;28;20096;-40
2023/06/25 13:08:00;;;;;;;5.85;4.22;;;29.60;99.90;;;;;;12402580;28;20049;-39
2023/06/25 13:14:02;;;;;;;6.88;3.38;;;29.10;99.90;;;;;;12418962;28;20533;-40
2023/06/25 13:20:05;;;;;;;4.93;3.60;;;29.20;99.90;;;;;;12408928;28;20050;-40
2023/06/25 13:26:08;;;;;;;6.72;3.67;;;28.70;99.90;;;;;;12402331;28;20061;-39
2023/06/25 13:32:10;;;;;;;4.60;3.42;;;28.50;99.90;;;;;;12408344;28;20050;-41
2023/06/25 13:38:12;;;;;;;5.45;4.10;;;28.50;99.90;;;;;;12420568;28;20065;-41
2023/06/25 13:44:14;;;;;;;6.60;3.87;;;28.60;99.90;;;;;;12419879;28;20046;-41
2023/06/25 13:50:17;;;;;;;6.50;4.07;;;29.00;99.90;;;;;;12403391;28;20289;-40
2023/06/25 13:56:19;;;;;;;5.50;3.70;;;29.30;99.90;;;;;;12435524;28;20050;-40
2023/06/25 14:02:21;;;;;;;8.73;3.83;;;29.50;99.90;;;;;;12416325;28;20088;-41
2023/06/25 14:08:23;;;;;;;;;;;29.50;99.90;;;;;;12410052;28;20485;-40
2023/06/25 14:14:25;;;;;;;5.03;3.78;;;29.60;99.90;;;;;;12408426;28;19922;-40
2023/06/25 14:20:28;;;;;;;5.18;3.80;;;29.50;99.90;;;;;;12422673;28;20058;-40
2023/06/25 14:26:30;;;;;;;6.75;3.90;;;29.30;99.90;;;;;;12401986;28;20041;-40
2023/06/25 14:32:32;;;;;;;6.30;3.90;;;29.10;99.90;;;;;;12408978;28;20054;-41
2023/06/25 14:38:36;;;;;;;5.90;3.72;;;29.20;99.90;;;;;;12394685;28;20483;-40
2023/06/25 14:44:38;;;;;;;5.15;3.70;;;29.30;99.90;;;;;;12407572;28;20057;-41
2023/06/25 14:50:40;;;;;;;4.53;3.53;;;29.30;99.90;;;;;;12411003;28;20079;-40
2023/06/25 14:56:42;;;;;;;5.38;3.45;;;29.20;99.90;;;;;;12394126;28;20554;-40
2023/06/25 15:02:44;;;;;;;5.85;4.07;;;29.40;99.90;;;;;;12426029;28;20046;-40
2023/06/25 15:08:46;;;;;;;6.32;3.50;;;29.40;99.90;;;;;;12412574;28;20046;-41
2023/06/25 15:14:48;;;;;;;5.35;3.55;;;29.10;99.90;;;;;;12407931;28;20046;-40
2023/06/25 15:20:52;;;;;;;4.65;3.50;;;29.10;99.90;;;;;;12405459;28;20050;-41
2023/06/25 15:26:54;;;;;;;5.38;4.07;;;28.70;99.90;;;;;;12393707;28;20066;-40
2023/06/25 15:32:57;;;;;;;6.13;3.72;;;28.40;99.90;;;;;;12421361;28;20058;-40
2023/06/25 15:38:59;;;;;;;5.60;3.80;;;28.20;99.90;;;;;;12409038;28;20057;-42
2023/06/25 15:45:01;;;;;;;7.55;3.40;;;28.10;99.90;;;;;;12395549;28;20626;-42
2023/06/25 15:51:03;;;;;;;7.60;3.88;;;28.50;99.90;;;;;;12401870;28;20049;-41
2023/06/25 15:57:05;;;;;;;4.63;3.72;;;28.40;99.90;;;;;;12416521;28;21234;-41
2023/06/25 16:03:08;;;;;;;4.90;3.25;;;28.60;99.90;;;;;;12397528;28;20046;-41
2023/06/25 16:09:10;;;;;;;4.53;3.30;;;28.70;99.90;;;;;;12413444;28;20042;-41
2023/06/25 16:15:12;;;;;;;4.47;3.20;;;29.00;99.90;;;;;;12399560;28;20042;-40
2023/06/25 16:21:14;;;;;;;5.30;3.78;;;29.10;99.90;;;;;;12412687;28;20050;-42
2023/06/25 16:27:16;;;;;;;5.40;3.60;;;28.70;99.90;;;;;;12415525;28;20433;-41
2023/06/25 16:33:18;;;;;;;5.00;3.90;;;28.30;99.90;;;;;;12418397;28;20054;-40
2023/06/25 16:39:20;;;;;;;4.05;3.38;;;28.10;99.90;;;;;;12437772;28;20046;-41
2023/06/25 16:45:22;;;;;;;7.90;3.57;;;28.10;99.90;;;;;;12411048;28;20074;-41
2023/06/25 16:51:24;;;;;;;6.22;3.47;;;28.40;99.90;;;;;;12412491;28;20513;-41
2023/06/25 16:57:26;;;;;;;4.65;3.25;;;28.90;99.90;;;;;;12421565;28;20418;-40
2023/06/25 17:03:30;;;;;;;7.65;3.00;;;29.20;99.90;;;;;;12398676;28;20510;-41
2023/06/25 17:09:33;;;;;;;5.05;3.30;;;29.40;99.90;;;;;;12415031;28;20038;-41
2023/06/25 17:15:35;;;;;;;4.85;3.33;;;29.50;99.90;;;;;;12436985;28;20057;-40
2023/06/25 17:21:37;;;;;;;3.83;3.22;;;29.50;99.90;;;;;;12393970;28;20088;-40
2023/06/25 17:27:39;;;;;;;6.20;3.67;;;29.70;99.90;;;;;;12413560;28;20054;-40
2023/06/25 17:33:41;;;;;;;4.28;3.08;;;29.90;99.90;;;;;;12423057;28;20050;-42
2023/06/25 17:39:43;;;;;;;10.45;3.05;;;30.20;99.90;;;;;;12401687;28;20081;-42
2023/06/25 17:45:45;;;;;;;3.53;2.70;;;30.40;99.90;;;;;;12442341;28;20046;-41
2023/06/25 17:51:47;;;;;;;;;;;30.70;99.90;;;;;;12419733;28;20077;-41
2023/06/25 17:57:49;;;;;;;3.50;2.80;;;30.50;99.90;;;;;;12420574;28;20297;-41
2023/06/25 18:03:51;;;;;;;4.55;3.38;;;30.70;99.90;;;;;;12419255;28;20058;-41
2023/06/25 18:09:55;;;;;;;5.57;3.25;;;30.90;99.90;;;;;;12418444;28;20041;-40
2023/06/25 18:15:57;;;;;;;7.00;3.60;;;30.70;99.90;;;;;;12401635;28;20042;-41
2023/06/25 18:21:59;;;;;;;8.32;3.97;;;30.10;99.90;;;;;;12423282;28;20053;-40
2023/06/25 18:28:01;;;;;;;4.45;3.25;;;29.50;99.90;;;;;;12409526;28;20076;-40
2023/06/25 18:34:03;;;;;;;5.55;3.20;;;28.70;99.90;;;;;;12398248;28;20049;-40
2023/06/25 18:40:06;;;;;;;5.03;3.38;;;28.10;99.90;;;;;;12413581;28;20238;-40
2023/06/25 18:46:08;;;;;;;7.03;3.85;;;27.50;99.90;;;;;;12412177;28;20053;-40
2023/06/25 18:52:10;;;;;;;5.78;3.83;;;27.20;99.90;;;;;;12402408;28;20038;-40
2023/06/25 18:58:15;;;;;;;6.80;3.67;;;27.10;99.90;;;;;;12417388;28;20139;-40
2023/06/25 19:04:17;;;;;;;6.45;4.15;;;26.90;99.90;;;;;;12419026;28;20304;-40
2023/06/25 19:10:19;;;;;;;6.90;4.20;;;26.70;99.90;;;;;;12408530;28;20050;-40
2023/06/25 19:16:21;;;;;;;5.63;3.90;;;26.60;99.90;;;;;;12416469;28;20426;-41
2023/06/25 19:22:23;;;;;;;4.37;3.87;;;26.40;99.90;;;;;;12401625;28;20092;-40
2023/06/25 19:28:25;;;;;;;5.37;4.50;;;26.10;99.90;;;;;;12406748;28;20045;-40
2023/06/25 19:34:27;;;;;;;8.13;4.70;;;25.90;99.90;;;;;;12417007;28;20046;-40
2023/06/25 19:40:29;;;;;;;7.85;4.97;;;25.70;99.90;;;;;;12409154;28;20049;-39
2023/06/25 19:46:31;;;;;;;6.55;4.88;;;25.50;99.90;;;;;;12421021;28;20406;-46
2023/06/25 19:52:33;;;;;;;6.13;4.70;;;25.20;99.90;;;;;;12436643;28;20046;-40
2023/06/25 19:58:35;;;;;;;6.68;4.40;;;25.00;99.90;;;;;;12411462;28;20050;-39
2023/06/25 20:04:38;;;;;;;6.65;5.30;;;24.90;99.90;;;;;;12411389;28;20077;-39
2023/06/25 20:10:40;;;;;;;5.63;4.65;;;24.80;99.90;;;;;;12428232;28;20064;-39
2023/06/25 20:16:42;;;;;;;9.10;5.28;;;24.70;99.90;;;;;;12420354;28;20046;-40
2023/06/25 20:22:44;;;;;;;6.68;4.78;;;24.50;99.90;;;;;;12421757;28;20081;-40
2023/06/25 20:28:46;;;;;;;6.63;4.78;;;24.50;99.90;;;;;;12410110;28;20057;-39
2023/06/25 20:34:48;;;;;;;6.50;4.50;;;24.40;99.90;;;;;;12419555;28;20438;-39
2023/06/25 20:40:50;;;;;;;5.95;4.90;;;24.40;99.90;;;;;;12420599;28;20053;-40
2023/06/25 20:46:51;;;;;;;6.82;4.47;;;24.40;99.90;;;;;;12414298;28;20069;-39
2023/06/25 20:52:54;;;;;;;7.97;4.90;;;24.60;99.90;;;;;;12407057;28;20060;-40
2023/06/25 20:58:55;;;;;;;16.08;4.72;;;24.70;99.90;;;;;;12414918;28;20165;-39
2023/06/25 21:04:57;;;;;;;6.72;4.90;;;24.70;99.90;;;;;;12402598;28;20567;-39
2023/06/25 21:11:00;;;;;;;6.32;4.28;;;24.60;99.90;;;;;;12423491;28;20096;-40
2023/06/25 21:17:02;;;;;;;5.30;4.28;;;24.70;99.90;;;;;;12409781;28;20416;-40
2023/06/25 21:23:05;;;;;;;7.30;4.97;;;24.70;99.90;;;;;;12410877;28;20045;-39
2023/06/25 21:29:07;;;;;;;4.97;4.17;;;24.60;99.90;;;;;;12419444;28;20173;-39
2023/06/25 21:35:09;;;;;;;7.88;4.50;;;24.60;99.90;;;;;;12402928;28;20057;-39
2023/06/25 21:41:11;;;;;;;6.50;4.68;;;24.60;99.90;;;;;;12423552;28;20043;-40
2023/06/25 21:47:13;;;;;;;7.88;4.93;;;24.60;99.90;;;;;;12402077;28;20074;-40
2023/06/25 21:53:19;;;;;;;8.85;4.90;;;24.50;99.90;;;;;;12410029;28;20514;-40
2023/06/25 21:59:21;;;;;;;6.22;4.50;;;24.40;99.90;;;;;;12413732;28;20104;-39
2023/06/25 22:05:23;;;;;;;5.22;4.22;;;24.30;99.90;;;;;;12389808;28;20042;-39
2023/06/25 22:11:25;;;;;;;7.03;4.78;;;24.30;99.90;;;;;;12416257;28;20042;-40
2023/06/25 22:17:27;;;;;;;10.53;4.30;;;24.20;99.90;;;;;;12411102;28;20517;-39
2023/06/25 22:23:29;;;;;;;6.85;4.72;;;24.40;99.90;;;;;;12394425;28;20093;-40
2023/06/25 22:29:34;;;;;;;6.95;4.10;;;24.30;99.90;;;;;;12396873;28;20058;-39
2023/06/25 22:35:45;;;;;;;6.70;4.85;;;24.30;99.90;;;;;;12407138;28;20050;-39
2023/06/25 22:41:47;;;;;;;7.78;4.95;;;24.30;99.90;;;;;;12427363;28;20124;-40
2023/06/25 22:47:49;;;;;;;6.13;4.60;;;24.30;99.90;;;;;;12414132;28;20495;-40
2023/06/25 22:53:50;;;;;;;13.48;4.45;;;24.30;99.90;;;;;;12407106;28;20157;-40
2023/06/25 22:59:52;;;;;;;7.32;4.75;;;24.20;99.90;;;;;;12413586;28;20041;-40
2023/06/25 23:05:55;;;;;;;6.65;4.80;;;24.20;99.90;;;;;;12402558;28;20519;-39
2023/06/25 23:11:56;;;;;;;6.75;4.60;;;24.20;99.90;;;;;;12432965;28;20076;-39
2023/06/25 23:17:58;;;;;;;5.45;4.25;;;24.00;99.90;;;;;;12416225;28;20046;-39
2023/06/25 23:24:04;;;;;;;5.05;4.43;;;24.00;99.90;;;;;;12406144;28;20073;-41
2023/06/25 23:30:07;;;;;;;5.97;4.13;;;23.90;99.90;;;;;;12401793;28;20080;-41
2023/06/25 23:36:10;;;;;;;8.95;5.65;;;23.90;99.90;;;;;;12393533;28;20453;-41
2023/06/25 23:42:12;;;;;;;77.65;7.35;;;23.70;99.90;;;;;;12403556;28;20055;-40
2023/06/25 23:48:14;;;;;;;6.50;4.38;;;23.80;99.90;;;;;;12392105;28;20539;-41
2023/06/25 23:54:16;;;;;;;11.55;4.88;;;23.80;99.90;;;;;;12413525;28;20056;-40
